createdAt,value
2023-05-01T00:00:07.222Z,11.5
2023-05-01T00:01:07.900Z,11.5
2023-05-01T00:02:08.442Z,11.5
2023-05-01T00:03:09.042Z,11.6
2023-05-01T00:04:09.679Z,11.6
2023-05-01T00:05:10.128Z,11.6
2023-05-01T00:06:10.792Z,11.6
2023-05-01T00:07:11.223Z,11.6
2023-05-01T00:08:11.932Z,11.6
2023-05-01T00:09:12.472Z,11.6
2023-05-01T00:10:12.982Z,11.6
2023-05-01T00:11:13.507Z,11.6
2023-05-01T00:12:14.027Z,11.6
2023-05-01T00:13:14.755Z,11.6
2023-05-01T00:14:15.240Z,11.6
2023-05-01T00:15:15.969Z,11.6
2023-05-01T00:16:16.611Z,11.6
2023-05-01T00:17:17.158Z,11.6
2023-05-01T00:18:17.740Z,11.6
2023-05-01T00:19:18.490Z,11.6
2023-05-01T00:20:19.190Z,11.6
2023-05-01T00:21:25.436Z,11.6
2023-05-01T00:22:25.952Z,11.6
2023-05-01T00:23:26.493Z,11.6
2023-05-01T00:24:27.103Z,11.6
2023-05-01T00:25:27.821Z,11.6
2023-05-01T00:26:28.342Z,11.6
2023-05-01T00:27:28.882Z,11.6
2023-05-01T00:28:29.456Z,11.6
2023-05-01T00:29:30.009Z,11.6
2023-05-01T00:30:30.611Z,11.6
2023-05-01T00:31:31.343Z,11.6
2023-05-01T00:32:31.914Z,11.6
2023-05-01T00:33:32.445Z,11.6
2023-05-01T00:34:32.975Z,11.6
2023-05-01T00:35:33.532Z,11.6
2023-05-01T00:36:34.247Z,11.6
2023-05-01T00:37:34.801Z,11.6
2023-05-01T00:38:35.478Z,11.6
2023-05-01T00:39:36.010Z,11.6
2023-05-01T00:40:36.529Z,11.6
2023-05-01T00:41:37.081Z,11.6
2023-05-01T00:42:37.767Z,11.2
2023-05-01T00:43:38.344Z,11.2
2023-05-01T00:44:38.907Z,11.2
2023-05-01T00:45:39.569Z,11.2
2023-05-01T00:46:46.196Z,11.2
2023-05-01T00:47:46.770Z,11.2
2023-05-01T00:48:47.419Z,11.2
2023-05-01T00:49:48.080Z,11.2
2023-05-01T00:50:48.771Z,11.2
2023-05-01T00:51:49.501Z,11.2
2023-05-01T00:52:50.226Z,11.2
2023-05-01T00:53:50.753Z,11.2
2023-05-01T00:54:51.292Z,11.2
2023-05-01T00:55:51.831Z,11.2
2023-05-01T00:56:52.378Z,11.2
2023-05-01T00:57:52.901Z,11.2
2023-05-01T00:58:53.469Z,11.2
2023-05-01T00:59:54.189Z,11.2
2023-05-01T01:00:54.573Z,11.2
2023-05-01T01:01:56.429Z,11.2
2023-05-01T01:02:55.591Z,11.3
2023-05-01T01:03:56.080Z,11.3
2023-05-01T01:04:56.661Z,11.3
2023-05-01T01:05:57.173Z,11.3
2023-05-01T01:06:57.699Z,11.3
2023-05-01T01:07:58.412Z,11.3
2023-05-01T01:09:05.271Z,11.3
2023-05-01T01:10:05.921Z,11.3
2023-05-01T01:11:06.461Z,11.3
2023-05-01T01:12:06.988Z,11.3
2023-05-01T01:13:07.493Z,11.3
2023-05-01T01:14:08.207Z,11.3
2023-05-01T01:15:08.760Z,11.3
2023-05-01T01:16:09.280Z,11.3
2023-05-01T01:17:09.972Z,11.3
2023-05-01T01:18:10.357Z,11.3
2023-05-01T01:19:10.993Z,11.3
2023-05-01T01:20:11.703Z,11.3
2023-05-01T01:21:12.429Z,11.3
2023-05-01T01:22:13.060Z,11.3
2023-05-01T01:23:13.665Z,10.9
2023-05-01T01:24:14.231Z,10.9
2023-05-01T01:25:14.910Z,10.9
2023-05-01T01:26:15.644Z,10.9
2023-05-01T01:27:16.131Z,10.9
2023-05-01T01:28:16.800Z,10.9
2023-05-01T01:29:17.343Z,10.9
2023-05-01T01:30:18.029Z,10.9
2023-05-01T01:31:24.540Z,10.9
2023-05-01T01:32:25.017Z,10.9
2023-05-01T01:33:25.525Z,10.9
2023-05-01T01:34:26.070Z,10.9
2023-05-01T01:35:26.598Z,10.9
2023-05-01T01:36:27.167Z,10.9
2023-05-01T01:37:27.727Z,10.9
2023-05-01T01:38:28.416Z,10.9
2023-05-01T01:39:29.040Z,10.9
2023-05-01T01:40:29.557Z,10.9
2023-05-01T01:41:30.073Z,10.9
2023-05-01T01:42:30.627Z,10.7
2023-05-01T01:43:31.127Z,10.7
2023-05-01T01:44:31.860Z,10.7
2023-05-01T01:45:32.365Z,10.7
2023-05-01T01:46:32.938Z,10.7
2023-05-01T01:47:33.448Z,10.7
2023-05-01T01:48:33.969Z,10.7
2023-05-01T01:49:34.626Z,10.7
2023-05-01T01:50:35.134Z,10.7
2023-05-01T01:51:35.672Z,10.7
2023-05-01T01:52:36.221Z,10.7
2023-05-01T01:53:36.730Z,10.7
2023-05-01T01:54:37.329Z,10.7
2023-05-01T01:55:37.879Z,10.7
2023-05-01T01:56:38.572Z,10.7
2023-05-01T01:57:39.118Z,10.7
2023-05-01T01:58:39.643Z,10.7
2023-05-01T01:59:46.399Z,10.7
2023-05-01T02:00:46.896Z,10.7
2023-05-01T02:01:47.561Z,10.7
2023-05-01T02:02:48.184Z,10.7
2023-05-01T02:03:48.990Z,10.7
2023-05-01T02:04:49.481Z,10.7
2023-05-01T02:05:49.993Z,10.7
2023-05-01T02:06:50.655Z,10.7
2023-05-01T02:07:51.240Z,10.7
2023-05-01T02:08:51.774Z,10.7
2023-05-01T02:09:52.388Z,10.7
2023-05-01T02:10:52.937Z,10.7
2023-05-01T02:11:53.619Z,10.7
2023-05-01T02:12:54.354Z,10.7
2023-05-01T02:13:54.873Z,10.7
2023-05-01T02:14:55.444Z,10.7
2023-05-01T02:15:56.005Z,10.7
2023-05-01T02:16:56.739Z,10.7
2023-05-01T02:17:57.468Z,10.7
2023-05-01T02:18:58.011Z,10.7
2023-05-01T02:19:58.600Z,10.7
2023-05-01T02:20:59.122Z,10.7
2023-05-01T02:22:05.874Z,10.7
2023-05-01T02:23:06.506Z,10.6
2023-05-01T02:24:07.128Z,10.6
2023-05-01T02:25:07.646Z,10.6
2023-05-01T02:26:08.201Z,10.6
2023-05-01T02:27:08.734Z,10.6
2023-05-01T02:28:09.286Z,10.6
2023-05-01T02:29:10.018Z,10.6
2023-05-01T02:30:10.587Z,10.6
2023-05-01T02:31:11.292Z,10.6
2023-05-01T02:32:11.809Z,10.6
2023-05-01T02:33:12.408Z,10.6
2023-05-01T02:34:12.946Z,10.6
2023-05-01T02:35:13.487Z,10.6
2023-05-01T02:36:14.006Z,10.6
2023-05-01T02:37:14.531Z,10.6
2023-05-01T02:38:15.108Z,10.6
2023-05-01T02:39:15.610Z,10.6
2023-05-01T02:40:16.151Z,10.6
2023-05-01T02:41:16.851Z,10.6
2023-05-01T02:42:17.601Z,10.6
2023-05-01T02:43:18.219Z,10.7
2023-05-01T02:44:24.895Z,10.7
2023-05-01T02:45:25.525Z,10.7
2023-05-01T02:46:26.150Z,10.7
2023-05-01T02:47:26.630Z,10.7
2023-05-01T02:48:27.152Z,10.7
2023-05-01T02:49:27.877Z,10.7
2023-05-01T02:50:28.430Z,10.7
2023-05-01T02:51:29.123Z,10.7
2023-05-01T02:52:29.666Z,10.7
2023-05-01T02:53:30.261Z,10.7
2023-05-01T02:54:30.882Z,10.7
2023-05-01T02:55:31.446Z,10.7
2023-05-01T02:56:32.007Z,10.7
2023-05-01T02:57:32.740Z,10.7
2023-05-01T02:58:33.359Z,10.7
2023-05-01T02:59:33.877Z,10.7
2023-05-01T03:00:34.626Z,10.7
2023-05-01T03:01:35.120Z,10.7
2023-05-01T03:02:35.666Z,10.8
2023-05-01T03:03:36.183Z,10.8
2023-05-01T03:04:36.818Z,10.8
2023-05-01T03:05:37.265Z,10.8
2023-05-01T03:06:37.831Z,10.8
2023-05-01T03:07:38.318Z,10.8
2023-05-01T03:08:38.875Z,10.8
2023-05-01T03:09:45.464Z,10.8
2023-05-01T03:10:46.136Z,10.8
2023-05-01T03:11:46.629Z,10.8
2023-05-01T03:12:47.292Z,10.8
2023-05-01T03:13:48.004Z,10.8
2023-05-01T03:14:48.727Z,10.8
2023-05-01T03:15:49.378Z,10.8
2023-05-01T03:16:50.080Z,10.8
2023-05-01T03:17:50.663Z,10.8
2023-05-01T03:18:51.306Z,10.8
2023-05-01T03:19:52.041Z,10.8
2023-05-01T03:20:52.660Z,10.8
2023-05-01T03:21:53.277Z,10.8
2023-05-01T03:22:53.902Z,10.6
2023-05-01T03:23:54.422Z,10.6
2023-05-01T03:24:55.137Z,10.6
2023-05-01T03:25:55.660Z,10.6
2023-05-01T03:26:56.383Z,10.6
2023-05-01T03:27:56.915Z,10.6
2023-05-01T03:28:57.624Z,10.6
2023-05-01T03:29:58.453Z,10.6
2023-05-01T03:30:59.095Z,10.6
2023-05-01T03:32:05.333Z,10.6
2023-05-01T03:33:05.894Z,10.6
2023-05-01T03:34:06.373Z,10.6
2023-05-01T03:35:06.914Z,10.6
2023-05-01T03:36:07.396Z,10.6
2023-05-01T03:37:07.943Z,10.6
2023-05-01T03:38:08.539Z,10.6
2023-05-01T03:39:09.169Z,10.6
2023-05-01T03:40:09.686Z,10.6
2023-05-01T03:41:10.206Z,10.6
2023-05-01T03:42:10.708Z,10.6
2023-05-01T03:43:11.203Z,10.5
2023-05-01T03:44:11.740Z,10.5
2023-05-01T03:45:12.317Z,10.5
2023-05-01T03:46:12.889Z,10.5
2023-05-01T03:47:13.391Z,10.5
2023-05-01T03:48:13.926Z,10.5
2023-05-01T03:49:14.446Z,10.5
2023-05-01T03:50:14.968Z,10.5
2023-05-01T03:51:15.684Z,10.5
2023-05-01T03:52:16.229Z,10.5
2023-05-01T03:53:16.838Z,10.5
2023-05-01T03:54:17.400Z,10.5
2023-05-01T03:55:17.904Z,10.5
2023-05-01T03:56:18.417Z,10.5
2023-05-01T03:57:18.953Z,10.5
2023-05-01T03:58:19.476Z,10.5
2023-05-01T03:59:19.997Z,10.5
2023-05-01T04:00:26.657Z,10.5
2023-05-01T04:01:27.255Z,10.5
2023-05-01T04:02:27.974Z,10.3
2023-05-01T04:03:28.745Z,10.3
2023-05-01T04:04:29.483Z,10.3
2023-05-01T04:05:29.819Z,10.3
2023-05-01T04:06:30.575Z,10.3
2023-05-01T04:07:31.090Z,10.3
2023-05-01T04:08:31.679Z,10.3
2023-05-01T04:09:32.235Z,10.3
2023-05-01T04:10:32.730Z,10.3
2023-05-01T04:11:33.338Z,10.3
2023-05-01T04:12:34.054Z,10.3
2023-05-01T04:13:34.567Z,10.3
2023-05-01T04:14:35.212Z,10.3
2023-05-01T04:15:35.730Z,10.3
2023-05-01T04:16:36.415Z,10.3
2023-05-01T04:17:36.993Z,10.3
2023-05-01T04:18:37.460Z,10.3
2023-05-01T04:19:38.025Z,10.3
2023-05-01T04:20:38.731Z,10.3
2023-05-01T04:21:39.442Z,10.3
2023-05-01T04:22:45.752Z,10.2
2023-05-01T04:23:46.421Z,10.2
2023-05-01T04:24:46.952Z,10.2
2023-05-01T04:25:47.458Z,10.2
2023-05-01T04:26:47.973Z,10.2
2023-05-01T04:27:48.709Z,10.2
2023-05-01T04:28:49.421Z,10.2
2023-05-01T04:29:50.051Z,10.2
2023-05-01T04:30:50.792Z,10.2
2023-05-01T04:31:51.463Z,10.2
2023-05-01T04:32:51.829Z,10.2
2023-05-01T04:33:52.428Z,10.2
2023-05-01T04:34:52.961Z,10.2
2023-05-01T04:35:53.481Z,10.2
2023-05-01T04:36:53.994Z,10.2
2023-05-01T04:37:54.515Z,10.2
2023-05-01T04:38:55.056Z,10.2
2023-05-01T04:39:55.855Z,10.2
2023-05-01T04:40:56.179Z,10.2
2023-05-01T04:41:56.786Z,10.2
2023-05-01T04:42:57.507Z,9.8
2023-05-01T04:43:58.244Z,9.8
2023-05-01T04:45:04.853Z,9.8
2023-05-01T04:46:05.561Z,9.8
2023-05-01T04:47:06.308Z,9.8
2023-05-01T04:48:06.904Z,9.8
2023-05-01T04:49:07.491Z,9.8
2023-05-01T04:50:07.996Z,9.8
2023-05-01T04:51:08.546Z,9.8
2023-05-01T04:52:09.075Z,9.8
2023-05-01T04:53:09.649Z,9.8
2023-05-01T04:54:10.168Z,9.8
2023-05-01T04:55:10.684Z,9.8
2023-05-01T04:56:11.318Z,9.8
2023-05-01T04:57:11.842Z,9.8
2023-05-01T04:58:12.358Z,9.8
2023-05-01T04:59:12.903Z,9.8
2023-05-01T05:00:13.429Z,9.8
2023-05-01T05:01:13.975Z,9.8
2023-05-01T05:02:14.557Z,9.8
2023-05-01T05:03:15.226Z,10
2023-05-01T05:04:15.663Z,10
2023-05-01T05:05:16.398Z,10
2023-05-01T05:06:16.955Z,10
2023-05-01T05:07:17.468Z,10
2023-05-01T05:08:18.061Z,10
2023-05-01T05:09:20.136Z,10
2023-05-01T05:10:25.138Z,10
2023-05-01T05:11:25.685Z,10
2023-05-01T05:12:26.224Z,10
2023-05-01T05:13:26.897Z,10
2023-05-01T05:14:27.518Z,10
2023-05-01T05:15:28.245Z,10
2023-05-01T05:16:28.755Z,10
2023-05-01T05:17:29.522Z,10
2023-05-01T05:18:30.010Z,10
2023-05-01T05:19:30.528Z,10
2023-05-01T05:20:31.059Z,10
2023-05-01T05:21:31.566Z,10
2023-05-01T05:22:32.083Z,10.3
2023-05-01T05:23:32.605Z,10.3
2023-05-01T05:24:33.322Z,10.3
2023-05-01T05:25:33.885Z,10.3
2023-05-01T05:26:34.563Z,10.3
2023-05-01T05:27:35.101Z,10.3
2023-05-01T05:28:35.657Z,10.3
2023-05-01T05:29:36.423Z,10.3
2023-05-01T05:30:36.936Z,10.3
2023-05-01T05:31:37.519Z,10.3
2023-05-01T05:32:44.194Z,10.3
2023-05-01T05:33:44.856Z,10.3
2023-05-01T05:34:45.363Z,10.3
2023-05-01T05:35:45.992Z,10.3
2023-05-01T05:36:46.511Z,10.3
2023-05-01T05:37:47.136Z,10.3
2023-05-01T05:38:47.646Z,10.3
2023-05-01T05:39:48.186Z,10.3
2023-05-01T05:40:48.697Z,10.3
2023-05-01T05:41:49.216Z,10.3
2023-05-01T05:42:49.736Z,10.7
2023-05-01T05:43:50.380Z,10.7
2023-05-01T05:44:50.909Z,10.7
2023-05-01T05:45:51.416Z,10.7
2023-05-01T05:46:51.911Z,10.7
2023-05-01T05:47:52.474Z,10.7
2023-05-01T05:48:52.931Z,10.7
2023-05-01T05:49:53.600Z,10.7
2023-05-01T05:50:53.987Z,10.7
2023-05-01T05:51:54.702Z,10.7
2023-05-01T05:52:55.222Z,10.7
2023-05-01T05:53:55.833Z,10.7
2023-05-01T05:54:56.567Z,10.7
2023-05-01T05:55:57.192Z,10.7
2023-05-01T05:56:57.813Z,10.7
2023-05-01T05:58:04.472Z,10.7
2023-05-01T05:59:05.191Z,10.7
2023-05-01T06:00:05.703Z,10.7
2023-05-01T06:01:06.199Z,10.7
2023-05-01T06:02:06.785Z,10.7
2023-05-01T06:03:07.386Z,10.9
2023-05-01T06:04:07.788Z,10.9
2023-05-01T06:05:08.369Z,10.9
2023-05-01T06:06:08.882Z,10.9
2023-05-01T06:07:09.370Z,10.9
2023-05-01T06:08:10.058Z,10.9
2023-05-01T06:09:10.561Z,10.9
2023-05-01T06:10:11.206Z,10.9
2023-05-01T06:11:11.715Z,10.9
2023-05-01T06:12:12.355Z,10.9
2023-05-01T06:13:14.422Z,10.9
2023-05-01T06:14:13.595Z,10.9
2023-05-01T06:15:14.129Z,10.9
2023-05-01T06:16:14.689Z,10.9
2023-05-01T06:17:15.165Z,10.9
2023-05-01T06:18:15.860Z,10.9
2023-05-01T06:19:16.290Z,10.9
2023-05-01T06:20:16.806Z,10.9
2023-05-01T06:21:17.324Z,10.9
2023-05-01T06:22:17.836Z,10.9
2023-05-01T06:23:24.515Z,11.3
2023-05-01T06:24:25.034Z,11.3
2023-05-01T06:25:25.565Z,11.3
2023-05-01T06:26:26.272Z,11.3
2023-05-01T06:27:26.783Z,11.3
2023-05-01T06:28:27.299Z,11.3
2023-05-01T06:29:27.802Z,11.3
2023-05-01T06:30:28.353Z,11.3
2023-05-01T06:31:28.884Z,11.3
2023-05-01T06:32:29.424Z,11.3
2023-05-01T06:33:29.897Z,11.3
2023-05-01T06:34:30.472Z,11.3
2023-05-01T06:35:30.937Z,11.3
2023-05-01T06:36:31.574Z,11.3
2023-05-01T06:37:32.046Z,11.3
2023-05-01T06:38:32.565Z,11.3
2023-05-01T06:39:33.101Z,11.3
2023-05-01T06:40:33.599Z,11.3
2023-05-01T06:41:34.121Z,11.3
2023-05-01T06:42:34.650Z,11.9
2023-05-01T06:43:35.179Z,11.9
2023-05-01T06:44:35.682Z,11.9
2023-05-01T06:45:36.195Z,11.9
2023-05-01T06:46:36.760Z,11.9
2023-05-01T06:47:37.294Z,11.9
2023-05-01T06:48:37.825Z,11.9
2023-05-01T06:49:38.345Z,11.9
2023-05-01T06:50:39.033Z,11.9
2023-05-01T06:51:45.787Z,11.9
2023-05-01T06:52:46.313Z,11.9
2023-05-01T06:53:46.830Z,11.9
2023-05-01T06:54:47.388Z,11.9
2023-05-01T06:55:47.913Z,11.9
2023-05-01T06:56:48.451Z,11.9
2023-05-01T06:57:48.977Z,11.9
2023-05-01T06:58:49.533Z,11.9
2023-05-01T06:59:50.066Z,11.9
2023-05-01T07:00:50.753Z,11.9
2023-05-01T07:01:51.291Z,11.9
2023-05-01T07:02:52.063Z,12.2
2023-05-01T07:03:52.554Z,12.2
2023-05-01T07:04:53.151Z,12.2
2023-05-01T07:05:53.667Z,12.2
2023-05-01T07:06:54.420Z,12.2
2023-05-01T07:08:01.073Z,12.2
2023-05-01T07:08:55.661Z,12.2
2023-05-01T07:09:56.313Z,12.2
2023-05-01T07:10:56.689Z,12.2
2023-05-01T07:11:57.197Z,12.2
2023-05-01T07:12:57.696Z,12.2
2023-05-01T07:13:58.228Z,12.2
2023-05-01T07:14:58.757Z,12.2
2023-05-01T07:15:59.296Z,12.2
2023-05-01T07:17:05.907Z,12.2
2023-05-01T07:18:06.509Z,12.2
2023-05-01T07:19:07.003Z,12.2
2023-05-01T07:20:07.515Z,12.2
2023-05-01T07:21:08.019Z,12.2
2023-05-01T07:22:08.529Z,12.2
2023-05-01T07:23:09.070Z,12.3
2023-05-01T07:24:09.870Z,12.3
2023-05-01T07:25:10.791Z,12.3
2023-05-01T07:26:11.394Z,12.3
2023-05-01T07:27:12.036Z,12.3
2023-05-01T07:28:12.565Z,12.3
2023-05-01T07:29:13.074Z,12.3
2023-05-01T07:30:13.589Z,12.3
2023-05-01T07:31:14.318Z,12.3
2023-05-01T07:32:14.902Z,12.3
2023-05-01T07:33:15.484Z,12.3
2023-05-01T07:34:16.044Z,12.3
2023-05-01T07:35:16.594Z,12.3
2023-05-01T07:36:17.321Z,12.3
2023-05-01T07:37:17.867Z,12.3
2023-05-01T07:38:18.554Z,12.3
2023-05-01T07:39:25.134Z,12.3
2023-05-01T07:40:25.911Z,12.3
2023-05-01T07:41:26.568Z,12.3
2023-05-01T07:42:27.091Z,12.3
2023-05-01T07:43:27.813Z,13
2023-05-01T07:44:28.538Z,13
2023-05-01T07:45:29.255Z,13
2023-05-01T07:46:29.859Z,13
2023-05-01T07:47:30.396Z,13
2023-05-01T07:48:31.111Z,13
2023-05-01T07:49:31.856Z,13
2023-05-01T07:50:32.356Z,13
2023-05-01T07:51:33.079Z,13
2023-05-01T07:52:33.629Z,13
2023-05-01T07:53:34.160Z,13
2023-05-01T07:54:34.658Z,13
2023-05-01T07:55:35.148Z,13
2023-05-01T07:56:35.876Z,13
2023-05-01T07:57:36.462Z,13
2023-05-01T07:58:37.006Z,13
2023-05-01T07:59:37.756Z,13
2023-05-01T08:00:38.283Z,13
2023-05-01T08:01:44.706Z,13
2023-05-01T08:02:45.433Z,13.9
2023-05-01T08:03:46.980Z,13.9
2023-05-01T08:04:46.842Z,13.9
2023-05-01T08:05:47.342Z,13.9
2023-05-01T08:06:47.922Z,13.9
2023-05-01T08:07:48.469Z,13.9
2023-05-01T08:08:49.098Z,13.9
2023-05-01T08:09:49.627Z,13.9
2023-05-01T08:10:50.123Z,13.9
2023-05-01T08:11:50.623Z,13.9
2023-05-01T08:12:51.248Z,13.9
2023-05-01T08:13:51.787Z,13.9
2023-05-01T08:14:52.317Z,13.9
2023-05-01T08:15:52.875Z,13.9
2023-05-01T08:16:53.437Z,13.9
2023-05-01T08:17:54.154Z,13.9
2023-05-01T08:18:54.681Z,13.9
2023-05-01T08:19:55.432Z,13.9
2023-05-01T08:20:55.769Z,13.9
2023-05-01T08:21:56.424Z,13.9
2023-05-01T08:22:56.950Z,14
2023-05-01T08:23:57.464Z,14
2023-05-01T08:24:57.995Z,14
2023-05-01T08:25:58.613Z,14
2023-05-01T08:27:05.170Z,14
2023-05-01T08:28:05.694Z,14
2023-05-01T08:29:06.248Z,14
2023-05-01T08:30:06.774Z,14
2023-05-01T08:31:07.339Z,14
2023-05-01T08:32:07.845Z,14
2023-05-01T08:33:08.436Z,14
2023-05-01T08:34:08.899Z,14
2023-05-01T08:35:09.469Z,14
2023-05-01T08:36:09.966Z,14
2023-05-01T08:37:10.522Z,14
2023-05-01T08:38:11.054Z,14
2023-05-01T08:39:11.592Z,14
2023-05-01T08:40:12.094Z,14
2023-05-01T08:41:12.628Z,14
2023-05-01T08:42:13.145Z,14
2023-05-01T08:43:13.778Z,14.5
2023-05-01T08:44:14.294Z,14.5
2023-05-01T08:45:14.850Z,14.5
2023-05-01T08:46:15.453Z,14.5
2023-05-01T08:47:15.902Z,14.5
2023-05-01T08:48:16.475Z,14.5
2023-05-01T08:49:16.992Z,14.5
2023-05-01T08:50:17.643Z,14.5
2023-05-01T08:51:19.573Z,14.5
2023-05-01T08:52:18.582Z,14.5
2023-05-01T08:53:19.105Z,14.5
2023-05-01T08:54:19.634Z,14.5
2023-05-01T08:55:26.305Z,14.5
2023-05-01T08:56:26.818Z,14.5
2023-05-01T08:57:27.332Z,14.5
2023-05-01T08:58:27.878Z,14.5
2023-05-01T08:59:28.405Z,14.5
2023-05-01T09:00:28.892Z,14.5
2023-05-01T09:01:29.499Z,14.5
2023-05-01T09:02:30.021Z,14.5
2023-05-01T09:03:30.544Z,14.9
2023-05-01T09:04:31.212Z,14.9
2023-05-01T09:05:31.780Z,14.9
2023-05-01T09:06:32.425Z,14.9
2023-05-01T09:07:32.865Z,14.9
2023-05-01T09:08:33.389Z,14.9
2023-05-01T09:09:33.913Z,14.9
2023-05-01T09:10:34.424Z,14.9
2023-05-01T09:11:34.943Z,14.9
2023-05-01T09:12:35.514Z,14.9
2023-05-01T09:13:36.005Z,14.9
2023-05-01T09:14:36.707Z,14.9
2023-05-01T09:15:37.242Z,14.9
2023-05-01T09:16:37.882Z,14.9
2023-05-01T09:17:38.430Z,14.9
2023-05-01T09:18:39.092Z,14.9
2023-05-01T09:19:39.605Z,14.9
2023-05-01T09:20:40.158Z,14.9
2023-05-01T09:21:40.646Z,14.9
2023-05-01T09:22:41.177Z,15.3
2023-05-01T09:23:47.929Z,15.3
2023-05-01T09:24:48.483Z,15.3
2023-05-01T09:25:50.849Z,15.3
2023-05-01T09:26:49.566Z,15.3
2023-05-01T09:27:50.222Z,15.3
2023-05-01T09:28:50.750Z,15.3
2023-05-01T09:29:51.285Z,15.3
2023-05-01T09:30:51.828Z,15.3
2023-05-01T09:31:52.436Z,15.3
2023-05-01T09:32:52.914Z,15.3
2023-05-01T09:33:53.437Z,15.3
2023-05-01T09:34:53.959Z,15.3
2023-05-01T09:35:54.701Z,15.3
2023-05-01T09:36:55.219Z,15.3
2023-05-01T09:37:55.909Z,15.3
2023-05-01T09:38:56.542Z,15.3
2023-05-01T09:39:57.290Z,15.3
2023-05-01T09:40:57.638Z,15.3
2023-05-01T09:41:58.317Z,15.3
2023-05-01T09:42:58.856Z,16.2
2023-05-01T09:43:59.545Z,16.2
2023-05-01T09:45:00.094Z,16.2
2023-05-01T09:46:00.750Z,16.2
2023-05-01T09:47:01.395Z,16.2
2023-05-01T09:48:01.943Z,16.2
2023-05-01T09:49:08.446Z,16.2
2023-05-01T09:50:08.982Z,16.2
2023-05-01T09:51:09.500Z,16.2
2023-05-01T09:52:09.991Z,16.2
2023-05-01T09:53:10.507Z,16.2
2023-05-01T09:54:11.051Z,16.2
2023-05-01T09:55:11.600Z,16.2
2023-05-01T09:56:12.219Z,16.2
2023-05-01T09:57:12.746Z,16.2
2023-05-01T09:58:13.278Z,16.2
2023-05-01T09:59:13.791Z,16.2
2023-05-01T10:00:14.505Z,16.2
2023-05-01T10:01:15.053Z,16.2
2023-05-01T10:02:15.559Z,16.2
2023-05-01T10:03:16.375Z,16.5
2023-05-01T10:04:16.813Z,16.5
2023-05-01T10:05:17.314Z,16.5
2023-05-01T10:06:17.928Z,16.5
2023-05-01T10:07:18.323Z,16.5
2023-05-01T10:08:18.812Z,16.5
2023-05-01T10:09:19.349Z,16.5
2023-05-01T10:10:19.896Z,16.5
2023-05-01T10:11:20.422Z,16.5
2023-05-01T10:12:20.998Z,16.5
2023-05-01T10:13:21.785Z,16.5
2023-05-01T10:14:22.321Z,16.5
2023-05-01T10:15:25.213Z,16.5
2023-05-01T10:16:23.518Z,16.5
2023-05-01T10:17:30.057Z,16.5
2023-05-01T10:18:30.555Z,16.5
2023-05-01T10:19:31.098Z,16.5
2023-05-01T10:20:31.842Z,16.5
2023-05-01T10:21:32.498Z,16.5
2023-05-01T10:22:33.078Z,16.5
2023-05-01T10:23:33.597Z,17
2023-05-01T10:24:34.328Z,17
2023-05-01T10:25:34.874Z,17
2023-05-01T10:26:35.595Z,17
2023-05-01T10:27:36.286Z,17
2023-05-01T10:28:36.918Z,17
2023-05-01T10:29:37.640Z,17
2023-05-01T10:30:38.182Z,17
2023-05-01T10:31:40.064Z,17
2023-05-01T10:32:39.256Z,17
2023-05-01T10:33:39.849Z,17
2023-05-01T10:34:40.528Z,17
2023-05-01T10:35:41.255Z,17
2023-05-01T10:36:41.905Z,17
2023-05-01T10:37:42.389Z,17
2023-05-01T10:38:43.125Z,17
2023-05-01T10:39:49.686Z,17
2023-05-01T10:40:50.442Z,17
2023-05-01T10:41:50.925Z,17
2023-05-01T10:42:51.585Z,17.5
2023-05-01T10:43:52.058Z,17.5
2023-05-01T10:44:52.789Z,17.5
2023-05-01T10:45:53.362Z,17.5
2023-05-01T10:46:54.144Z,17.5
2023-05-01T10:47:54.589Z,17.5
2023-05-01T10:48:55.178Z,17.5
2023-05-01T10:49:55.717Z,17.5
2023-05-01T10:50:56.246Z,17.5
2023-05-01T10:51:56.955Z,17.5
2023-05-01T10:52:57.663Z,17.5
2023-05-01T10:53:58.162Z,17.5
2023-05-01T10:54:58.744Z,17.5
2023-05-01T10:55:59.424Z,17.5
2023-05-01T10:57:00.141Z,17.5
2023-05-01T10:58:00.659Z,17.5
2023-05-01T10:59:01.371Z,17.5
2023-05-01T11:00:02.003Z,17.5
2023-05-01T11:01:02.560Z,17.5
2023-05-01T11:02:09.120Z,17.5
2023-05-01T11:03:09.650Z,17.6
2023-05-01T11:04:10.131Z,17.6
2023-05-01T11:05:10.677Z,17.6
2023-05-01T11:06:11.256Z,17.6
2023-05-01T11:07:11.763Z,17.6
2023-05-01T11:08:12.236Z,17.6
2023-05-01T11:09:12.745Z,17.6
2023-05-01T11:10:13.455Z,17.6
2023-05-01T11:11:14.057Z,17.6
2023-05-01T11:12:14.623Z,17.6
2023-05-01T11:13:15.291Z,17.6
2023-05-01T11:14:16.022Z,17.6
2023-05-01T11:15:16.587Z,17.6
2023-05-01T11:16:17.204Z,17.6
2023-05-01T11:17:17.717Z,17.6
2023-05-01T11:18:18.404Z,17.6
2023-05-01T11:19:18.950Z,17.6
2023-05-01T11:20:19.442Z,17.6
2023-05-01T11:21:20.171Z,17.6
2023-05-01T11:22:20.824Z,17.6
2023-05-01T11:23:21.419Z,18.4
2023-05-01T11:24:22.129Z,18.4
2023-05-01T11:25:22.875Z,18.4
2023-05-01T11:26:23.581Z,18.4
2023-05-01T11:27:29.814Z,18.4
2023-05-01T11:28:30.361Z,18.4
2023-05-01T11:29:30.910Z,18.4
2023-05-01T11:30:31.495Z,18.4
2023-05-01T11:31:32.019Z,18.4
2023-05-01T11:32:32.665Z,18.4
2023-05-01T11:33:33.173Z,18.4
2023-05-01T11:34:33.875Z,18.4
2023-05-01T11:35:34.495Z,18.4
2023-05-01T11:36:35.044Z,18.4
2023-05-01T11:37:35.663Z,18.4
2023-05-01T11:38:36.172Z,18.4
2023-05-01T11:39:36.876Z,18.4
2023-05-01T11:40:37.601Z,18.4
2023-05-01T11:41:38.111Z,18.4
2023-05-01T11:42:38.883Z,18.4
2023-05-01T11:43:39.565Z,18.3
2023-05-01T11:44:40.284Z,18.3
2023-05-01T11:45:40.821Z,18.3
2023-05-01T11:46:41.346Z,18.3
2023-05-01T11:47:41.906Z,18.3
2023-05-01T11:48:42.400Z,18.3
2023-05-01T11:49:49.036Z,18.3
2023-05-01T11:50:49.750Z,18.3
2023-05-01T11:51:50.248Z,18.3
2023-05-01T11:52:51.010Z,18.3
2023-05-01T11:53:51.498Z,18.3
2023-05-01T11:54:52.062Z,18.3
2023-05-01T11:55:52.753Z,18.3
2023-05-01T11:56:53.254Z,18.3
2023-05-01T11:57:53.809Z,18.3
2023-05-01T11:58:54.326Z,18.3
2023-05-01T11:59:55.029Z,18.3
2023-05-01T12:00:55.558Z,18.3
2023-05-01T12:01:56.105Z,18.3
2023-05-01T12:02:56.783Z,18.8
2023-05-01T12:03:57.555Z,18.8
2023-05-01T12:04:58.099Z,18.8
2023-05-01T12:05:58.662Z,18.8
2023-05-01T12:06:59.414Z,18.8
2023-05-01T12:07:59.964Z,18.8
2023-05-01T12:09:00.456Z,18.8
2023-05-01T12:10:00.991Z,18.8
2023-05-01T12:11:01.505Z,18.8
2023-05-01T12:12:08.339Z,18.8
2023-05-01T12:13:08.944Z,18.8
2023-05-01T12:14:09.585Z,18.8
2023-05-01T12:15:10.295Z,18.8
2023-05-01T12:16:11.012Z,18.8
2023-05-01T12:17:11.556Z,18.8
2023-05-01T12:18:12.201Z,18.8
2023-05-01T12:19:12.672Z,18.8
2023-05-01T12:20:13.197Z,18.8
2023-05-01T12:21:13.821Z,18.8
2023-05-01T12:22:14.536Z,18.8
2023-05-01T12:23:15.311Z,18.5
2023-05-01T12:24:15.907Z,18.5
2023-05-01T12:25:16.403Z,18.5
2023-05-01T12:26:16.932Z,18.5
2023-05-01T12:27:17.468Z,18.5
2023-05-01T12:28:18.002Z,18.5
2023-05-01T12:29:18.508Z,18.5
2023-05-01T12:30:19.034Z,18.5
2023-05-01T12:31:19.587Z,18.5
2023-05-01T12:32:20.235Z,18.5
2023-05-01T12:33:20.846Z,18.5
2023-05-01T12:34:27.407Z,18.5
2023-05-01T12:35:28.133Z,18.5
2023-05-01T12:36:28.627Z,18.5
2023-05-01T12:37:29.123Z,18.5
2023-05-01T12:38:29.660Z,18.5
2023-05-01T12:39:30.309Z,18.5
2023-05-01T12:40:30.826Z,18.5
2023-05-01T12:41:31.554Z,18.5
2023-05-01T12:42:32.080Z,18.5
2023-05-01T12:43:32.803Z,18.4
2023-05-01T12:44:33.520Z,18.4
2023-05-01T12:45:34.067Z,18.4
2023-05-01T12:46:34.744Z,18.4
2023-05-01T12:47:35.227Z,18.4
2023-05-01T12:48:35.730Z,18.4
2023-05-01T12:49:36.247Z,18.4
2023-05-01T12:50:36.848Z,18.4
2023-05-01T12:51:37.437Z,18.4
2023-05-01T12:52:37.950Z,18.4
2023-05-01T12:53:38.670Z,18.4
2023-05-01T12:54:39.145Z,18.4
2023-05-01T12:55:39.851Z,18.4
2023-05-01T12:56:40.571Z,18.4
2023-05-01T12:57:41.113Z,18.4
2023-05-01T12:58:41.610Z,18.4
2023-05-01T12:59:48.252Z,18.4
2023-05-01T13:00:48.792Z,18.4
2023-05-01T13:01:49.536Z,18.4
2023-05-01T13:02:50.298Z,18.2
2023-05-01T13:03:50.967Z,18.2
2023-05-01T13:04:51.485Z,18.2
2023-05-01T13:05:52.203Z,18.2
2023-05-01T13:06:52.972Z,18.2
2023-05-01T13:07:53.429Z,18.2
2023-05-01T13:08:54.093Z,18.2
2023-05-01T13:09:54.808Z,18.2
2023-05-01T13:10:56.904Z,18.2
2023-05-01T13:11:56.064Z,18.2
2023-05-01T13:12:56.653Z,18.2
2023-05-01T13:13:57.171Z,18.2
2023-05-01T13:14:57.808Z,18.2
2023-05-01T13:15:58.358Z,18.2
2023-05-01T13:16:58.833Z,18.2
2023-05-01T13:17:59.365Z,18.2
2023-05-01T13:19:00.066Z,18.2
2023-05-01T13:20:01.119Z,18.2
2023-05-01T13:21:01.093Z,18.2
2023-05-01T13:22:07.874Z,18.2
2023-05-01T13:23:08.602Z,18.2
2023-05-01T13:24:09.254Z,18.2
2023-05-01T13:25:09.745Z,18.2
2023-05-01T13:26:10.293Z,18.2
2023-05-01T13:27:10.825Z,18.2
2023-05-01T13:28:11.346Z,18.2
2023-05-01T13:29:11.865Z,18.2
2023-05-01T13:30:12.404Z,18.2
2023-05-01T13:31:12.966Z,18.2
2023-05-01T13:32:13.758Z,18.2
2023-05-01T13:33:14.219Z,18.2
2023-05-01T13:34:14.908Z,18.2
2023-05-01T13:35:15.536Z,18.2